Terminal Aerodrome Forecast
Issued by NWS

Home | Current Version | Previous Version | Text Only | Print | Product List | Glossary On
Versions: 1 2 3 4 5 6 7 8 9 10 11 12 13 14
000
FTUS46 KSTO 252332
TAFRDD
TAF
KRDD 252332Z 2600/2624 VRB04KT P6SM VCSH BKN070
     FM261100 19006KT P6SM -RA OVC050
     FM261700 18007KT P6SM OVC050=

USA.gov is the U.S. government's official web portal to all federal, state and local government web resources and services.